createdAt,value
2022-09-11T00:01:16.656Z,90.63363653338018
2022-09-11T00:04:16.680Z,90.28871804431411
2022-09-11T00:07:17.097Z,88.07033673058848
2022-09-11T00:11:20.524Z,88.98097570072558
2022-09-11T00:14:16.706Z,89.75040393222386
2022-09-11T00:17:17.705Z,88.02506387196611
2022-09-11T00:21:17.232Z,87.88844445923709
2022-09-11T00:24:16.787Z,87.96826500749968
2022-09-11T00:27:16.573Z,89.0018376379267
2022-09-11T00:31:19.072Z,90.18784769746424
2022-09-11T00:34:17.690Z,91.45364251405428
2022-09-11T00:37:17.024Z,92.22548252345122
2022-09-11T00:41:20.431Z,94.37860934836165
2022-09-11T00:45:26.763Z,94.68367390284067
2022-09-11T00:47:19.158Z,94.32644237207289
2022-09-11T00:51:22.364Z,94.24560396838297
2022-09-11T00:54:21.487Z,93.68742161922462
2022-09-11T00:57:20.865Z,94.75159232453542
2022-09-11T01:01:16.344Z,95.68015554485008
2022-09-11T01:04:16.584Z,96.42587706868478
2022-09-11T01:07:20.151Z,96.42607241682957
2022-09-11T01:11:30.877Z,95.34767991480719
2022-09-11T01:14:34.315Z,95.95012035234896
2022-09-11T01:17:26.138Z,95.62234115213585
2022-09-11T01:21:35.969Z,94.42131321045112
2022-09-11T01:24:32.007Z,95.34730212807307
2022-09-11T01:27:37.915Z,96.09243235397318
2022-09-11T01:31:24.172Z,95.30152849131272
2022-09-11T01:34:25.169Z,94.90977119213895
2022-09-11T01:37:25.081Z,94.38361649418412
2022-09-11T01:41:22.379Z,93.82940130066243
2022-09-11T01:51:21.770Z,94.38956124012924
2022-09-11T01:54:21.254Z,95.00021918751374
2022-09-11T01:57:24.403Z,95.74766238362345
2022-09-11T02:01:21.213Z,97.02823488794995
2022-09-11T02:04:21.218Z,97.17911607517169
2022-09-11T02:07:20.981Z,96.98575359122965
2022-09-11T02:11:17.789Z,94.93319959226845
2022-09-11T02:14:23.684Z,93.49803738608544
2022-09-11T02:17:22.742Z,93.93627944340336
2022-09-11T02:21:16.587Z,95.016594477007
2022-09-11T02:24:18.127Z,95.7256266497158
2022-09-11T02:27:22.490Z,95.84495118766657
2022-09-11T02:31:17.751Z,95.2221495398516
2022-09-11T02:34:25.577Z,95.48511922554336
2022-09-11T02:37:31.031Z,95.84647653033926
2022-09-11T02:41:23.138Z,96.68737956744062
2022-09-11T02:44:25.512Z,97.51550189066964
2022-09-11T02:47:31.561Z,98.56552894746822
2022-09-11T02:51:25.433Z,99.00902249748908
2022-09-11T02:54:27.956Z,99.56935209627476
2022-09-11T02:57:23.356Z,100
2022-09-11T03:01:16.598Z,100
2022-09-11T03:04:19.068Z,100
2022-09-11T03:07:17.153Z,100
2022-09-11T03:11:18.297Z,100
2022-09-11T03:14:16.752Z,98.62398979960535
2022-09-11T03:17:17.562Z,98.83831356449886
2022-09-11T03:21:16.940Z,100
2022-09-11T03:24:17.362Z,100
2022-09-11T03:27:17.943Z,99.62016523954514
2022-09-11T03:31:17.593Z,100
2022-09-11T03:34:18.920Z,100
2022-09-11T03:37:17.085Z,100
2022-09-11T03:41:15.999Z,100
2022-09-11T03:44:16.629Z,100
2022-09-11T03:47:16.750Z,100
2022-09-11T03:51:16.875Z,100
2022-09-11T03:54:18.105Z,100
2022-09-11T03:57:17.311Z,99.88829930719
2022-09-11T04:01:16.617Z,100
2022-09-11T04:04:16.926Z,100
2022-09-11T04:07:16.914Z,100
2022-09-11T04:11:16.723Z,100
2022-09-11T04:14:17.022Z,100
2022-09-11T04:17:17.310Z,100
2022-09-11T04:21:17.892Z,100
2022-09-11T04:24:16.232Z,100
2022-09-11T04:27:16.113Z,100
2022-09-11T04:31:20.968Z,100
2022-09-11T04:34:19.247Z,100
2022-09-11T04:37:20.146Z,100
2022-09-11T04:41:18.001Z,100
2022-09-11T04:44:19.481Z,100
2022-09-11T04:47:19.295Z,100
2022-09-11T04:51:21.357Z,100
2022-09-11T04:54:17.950Z,100
2022-09-11T04:57:16.822Z,100
2022-09-11T05:01:18.825Z,100
2022-09-11T05:04:17.799Z,100
2022-09-11T05:07:17.146Z,100
2022-09-11T05:11:18.714Z,100
2022-09-11T05:14:17.634Z,100
2022-09-11T05:17:16.865Z,100
2022-09-11T05:21:18.598Z,100
2022-09-11T05:24:17.051Z,100
2022-09-11T05:27:16.885Z,100
2022-09-11T05:31:18.084Z,100
2022-09-11T05:34:17.709Z,100
2022-09-11T05:37:17.311Z,100
2022-09-11T05:41:15.948Z,100
2022-09-11T05:44:16.008Z,100
2022-09-11T05:47:16.720Z,100
2022-09-11T05:51:17.452Z,100
2022-09-11T05:54:16.360Z,100
2022-09-11T05:57:16.780Z,100
2022-09-11T06:01:20.897Z,100
2022-09-11T06:04:19.240Z,100
2022-09-11T06:07:19.294Z,100
2022-09-11T06:11:18.417Z,100
2022-09-11T06:14:18.152Z,100
2022-09-11T06:17:17.270Z,100
2022-09-11T06:21:22.194Z,100
2022-09-11T06:24:16.704Z,100
2022-09-11T06:27:17.182Z,100
2022-09-11T06:31:19.344Z,100
2022-09-11T06:34:17.892Z,100
2022-09-11T06:37:17.018Z,100
2022-09-11T06:41:16.373Z,100
2022-09-11T06:44:17.319Z,100
2022-09-11T06:47:16.937Z,100
2022-09-11T06:51:19.081Z,100
2022-09-11T06:54:17.113Z,100
2022-09-11T06:57:45.286Z,100
2022-09-11T07:01:18.513Z,100
2022-09-11T07:04:17.059Z,100
2022-09-11T07:07:17.032Z,100
2022-09-11T07:11:19.510Z,100
2022-09-11T07:14:21.565Z,100
2022-09-11T07:17:19.257Z,100
2022-09-11T07:21:19.288Z,100
2022-09-11T07:24:16.678Z,100
2022-09-11T07:27:17.367Z,100
2022-09-11T07:31:21.095Z,100
2022-09-11T07:34:18.705Z,100
2022-09-11T07:37:18.478Z,100
2022-09-11T07:41:19.811Z,100
2022-09-11T07:44:18.651Z,100
2022-09-11T07:47:17.320Z,100
2022-09-11T07:51:17.900Z,100
2022-09-11T07:54:16.955Z,100
2022-09-11T07:57:16.639Z,100
2022-09-11T08:01:18.848Z,100
2022-09-11T08:04:16.902Z,100
2022-09-11T08:07:17.523Z,100
2022-09-11T08:11:21.082Z,100
2022-09-11T08:14:18.132Z,100
2022-09-11T08:17:18.611Z,100
2022-09-11T08:21:17.271Z,100
2022-09-11T08:24:18.430Z,98.39315114680265
2022-09-11T08:27:17.092Z,97.5044183436291
2022-09-11T08:31:17.883Z,95.5812927984251
2022-09-11T08:34:16.560Z,94.45037219430492
2022-09-11T08:37:18.752Z,94.92444901035522
2022-09-11T08:41:29.293Z,93.18163736324341
2022-09-11T08:44:24.297Z,90.98882365640546
2022-09-11T08:47:23.810Z,90.38042198530191
2022-09-11T08:51:17.796Z,91.07334961186946
2022-09-11T08:54:24.743Z,89.57425508459943
2022-09-11T08:57:22.105Z,91.13519814309453
2022-09-11T09:01:31.222Z,90.23797478056066
2022-09-11T09:04:34.467Z,88.4172117266819
2022-09-11T09:07:27.605Z,87.87863488540718
2022-09-11T09:11:30.453Z,86.84824640156602
2022-09-11T09:14:31.712Z,88.95797983550143
2022-09-11T09:17:21.210Z,85.58637666350398
2022-09-11T09:21:26.516Z,85.81277308122675
2022-09-11T09:24:20.522Z,85.27320222933336
2022-09-11T09:27:24.644Z,84.60387196111625
2022-09-11T09:31:21.019Z,86.42618357665302
2022-09-11T09:34:19.872Z,80.77400657927839
2022-09-11T09:37:21.608Z,78.60645680968274
2022-09-11T09:41:39.635Z,79.48277702084522
2022-09-11T09:51:18.016Z,76.24450750702036
2022-09-11T09:54:20.538Z,78.24698469882459
2022-09-11T09:57:18.451Z,74.77563098655357
2022-09-11T10:01:50.877Z,71.33360126232901
2022-09-11T10:04:20.470Z,69.60068237902405
2022-09-11T10:07:20.864Z,68.91379643060128
2022-09-11T10:11:28.554Z,66.50453575157171
2022-09-11T10:14:46.800Z,67.25053097647678
2022-09-11T10:17:22.798Z,68.55487204265965
2022-09-11T10:21:25.859Z,66.09502238245162
2022-09-11T10:24:21.893Z,65.74878324054782
2022-09-11T10:27:22.011Z,61.89329454993358
2022-09-11T10:31:18.639Z,62.64187827874061
2022-09-11T10:34:19.980Z,60.01879015890559
2022-09-11T10:37:23.979Z,59.81738560417124
2022-09-11T10:41:22.938Z,56.13835912231254
2022-09-11T10:44:18.579Z,58.09661700711204
2022-09-11T10:47:25.484Z,58.924869186610394
2022-09-11T10:51:17.746Z,58.01098337670021
2022-09-11T10:54:26.468Z,53.40449856406965
2022-09-11T10:57:24.113Z,51.8678908851095
2022-09-11T11:01:17.030Z,51.01495345428113
2022-09-11T11:04:19.084Z,49.77419177928474
2022-09-11T11:07:35.934Z,46.54075390358145
2022-09-11T11:11:31.187Z,49.16500673429569
2022-09-11T11:14:37.302Z,48.371523584532554
2022-09-11T11:17:31.452Z,47.95802491129715
2022-09-11T11:21:31.637Z,46.390403045289375
2022-09-11T11:24:56.067Z,44.87869652193017
2022-09-11T11:27:32.617Z,45.77701858609432
2022-09-11T11:31:34.907Z,47.59651830012997
2022-09-11T11:34:32.826Z,46.5662340736189
2022-09-11T11:37:23.250Z,46.7556285311338
2022-09-11T11:41:23.462Z,45.91811446741099
2022-09-11T11:44:29.865Z,41.81745711606634
2022-09-11T11:47:21.769Z,41.62347717116793
2022-09-11T11:51:20.827Z,42.20556017579061
2022-09-11T11:54:25.203Z,43.68161933317646
2022-09-11T11:57:22.069Z,41.47622809148682
2022-09-11T12:01:24.586Z,41.105316373957976
2022-09-11T12:04:39.867Z,41.746838410457926
2022-09-11T12:07:25.941Z,41.7409222801322
2022-09-11T12:11:30.037Z,42.18838735235655
2022-09-11T12:14:29.178Z,42.80685831313536
2022-09-11T12:17:24.783Z,39.32454501479954
2022-09-11T12:22:13.686Z,41.717111021000534
2022-09-11T12:24:22.599Z,39.547568812890965
2022-09-11T12:28:19.769Z,40.15472267471478
2022-09-11T12:31:19.796Z,39.021521734351296
2022-09-11T12:34:23.889Z,37.85862651415314
2022-09-11T12:37:29.093Z,37.30979430289172
2022-09-11T12:41:26.666Z,40.50189982034967
2022-09-11T12:44:58.184Z,38.920053397248175
2022-09-11T12:47:21.757Z,40.34205070675099
2022-09-11T12:51:23.219Z,40.86702040936698
2022-09-11T12:54:24.751Z,37.49644005968037
2022-09-11T12:57:27.271Z,37.11768453632025
2022-09-11T13:01:24.104Z,36.31432170472186
2022-09-11T13:04:23.364Z,36.33846062307324
2022-09-11T13:07:31.352Z,38.05750294192747
2022-09-11T13:11:42.078Z,35.304404717054226
2022-09-11T13:14:52.198Z,37.80214286691843
2022-09-11T13:17:26.098Z,37.72016778243553
2022-09-11T13:21:26.341Z,39.18412191479427
2022-09-11T13:24:27.062Z,39.86872488867099
2022-09-11T13:27:24.828Z,36.897596054243465
2022-09-11T13:31:27.123Z,37.99028858998185
2022-09-11T13:34:21.809Z,37.039038288234096
2022-09-11T13:37:32.612Z,36.689616516619864
2022-09-11T13:41:24.244Z,35.01064609881044
2022-09-11T13:51:25.512Z,36.81701483325822
2022-09-11T13:54:27.415Z,36.94762529198867
2022-09-11T13:57:21.893Z,36.40319282069061
2022-09-11T14:01:19.503Z,36.870018005027575
2022-09-11T14:04:20.072Z,36.37970478545896
2022-09-11T14:07:23.098Z,36.568699651063724
2022-09-11T14:11:25.820Z,33.93728921497411
2022-09-11T14:14:24.257Z,37.5502279506167
2022-09-11T14:17:20.370Z,36.55641060588566
2022-09-11T14:21:24.131Z,37.17157692369319
2022-09-11T14:24:34.227Z,38.20665982504194
2022-09-11T14:29:38.895Z,37.43253138214109
2022-09-11T14:31:30.970Z,37.95885495526642
2022-09-11T14:34:21.524Z,38.377926594649686
2022-09-11T14:37:21.382Z,35.49196798665297
2022-09-11T14:41:20.382Z,38.2247457430932
2022-09-11T14:44:19.112Z,37.81660776037706
2022-09-11T14:47:22.060Z,38.58568169322531
2022-09-11T14:51:18.712Z,35.78265864036565
2022-09-11T14:54:22.223Z,37.20191707788089
2022-09-11T14:57:22.710Z,37.237409800213534
2022-09-11T15:01:18.665Z,37.50976076278437
2022-09-11T15:04:21.422Z,35.21600569112655
2022-09-11T15:07:21.694Z,37.97755733640804
2022-09-11T15:11:18.923Z,37.238649716572404
2022-09-11T15:14:44.770Z,37.351024800293644
2022-09-11T15:17:19.244Z,36.81281883813082
2022-09-11T15:21:19.286Z,37.45787922610013
2022-09-11T15:24:18.805Z,37.37037432993371
2022-09-11T15:27:20.205Z,36.71428519033782
2022-09-11T15:31:21.413Z,37.54148979339949
2022-09-11T15:34:20.210Z,37.53636042781304
2022-09-11T15:37:27.105Z,36.69818320385783
2022-09-11T15:41:22.352Z,36.119089298398265
2022-09-11T15:44:20.947Z,37.22416855077658
2022-09-11T15:47:19.626Z,37.52004001541055
2022-09-11T15:51:20.060Z,38.51794220930097
2022-09-11T15:54:21.255Z,37.7924505171935
2022-09-11T15:57:18.953Z,35.85017886938043
2022-09-11T16:01:21.928Z,34.0614072613273
2022-09-11T16:04:20.306Z,34.31063223062757
2022-09-11T16:07:19.262Z,36.33668202458254
2022-09-11T16:11:20.415Z,36.66353223999795
2022-09-11T16:14:20.656Z,35.057381286131346
2022-09-11T16:17:23.144Z,34.539707056674175
2022-09-11T16:21:22.209Z,34.47112736235753
2022-09-11T16:24:18.750Z,34.89628044570493
2022-09-11T16:27:19.589Z,35.05125994182067
2022-09-11T16:31:18.407Z,35.46584945001075
2022-09-11T16:34:20.348Z,35.490145193443446
2022-09-11T16:37:20.497Z,34.84808047183802
2022-09-11T16:41:24.989Z,36.77211148620397
2022-09-11T16:44:19.025Z,36.195007355251775
2022-09-11T16:47:19.243Z,37.16911407844387
2022-09-11T16:51:19.670Z,35.82696930061865
2022-09-11T16:54:20.053Z,36.795085230995426
2022-09-11T16:57:19.654Z,38.12564438163003
2022-09-11T17:01:20.792Z,39.1736151145499
2022-09-11T17:04:19.072Z,39.96752057118185
2022-09-11T17:07:20.998Z,39.53905097028076
2022-09-11T17:11:21.460Z,39.17597499638593
2022-09-11T17:14:19.857Z,40.350830252025865
2022-09-11T17:17:20.788Z,42.44981157533046
2022-09-11T17:21:20.072Z,42.619206422870654
2022-09-11T17:24:28.994Z,42.0976735907623
2022-09-11T17:27:18.532Z,42.05068689832868
2022-09-11T17:31:19.556Z,43.846015125420486
2022-09-11T17:34:19.022Z,44.698390214475225
2022-09-11T17:37:18.650Z,45.62991098655951
2022-09-11T17:41:19.161Z,45.92633112591866
2022-09-11T17:44:19.633Z,45.78496930995599
2022-09-11T17:47:18.535Z,45.742978244270226
2022-09-11T17:51:21.134Z,46.043372400041775
2022-09-11T17:54:19.631Z,46.12984833769699
2022-09-11T17:57:19.004Z,46.686592969563286
2022-09-11T18:01:20.211Z,47.92382424594216
2022-09-11T18:04:20.270Z,48.201413025098766
2022-09-11T18:07:20.062Z,49.185145051057575
2022-09-11T18:11:18.861Z,49.955586200449154
2022-09-11T18:14:21.188Z,49.94834963799494
2022-09-11T18:17:21.258Z,50.03893425986364
2022-09-11T18:21:19.731Z,52.5641106395374
2022-09-11T18:24:22.310Z,52.74411189603909
2022-09-11T18:27:20.938Z,52.404758837240855
2022-09-11T18:31:46.157Z,52.84908991038298
2022-09-11T18:34:22.394Z,53.71564505669815
2022-09-11T18:37:19.791Z,54.42693951210406
2022-09-11T18:41:18.694Z,54.43211301466383
2022-09-11T18:44:21.885Z,54.60066539675515
2022-09-11T18:47:19.215Z,53.897827329573595
2022-09-11T18:51:24.620Z,57.46761813642957
2022-09-11T18:54:20.009Z,56.87281345926857
2022-09-11T18:57:18.034Z,55.56405235887147
2022-09-11T19:01:21.330Z,56.01963744354723
2022-09-11T19:04:18.903Z,57.630499434781804
2022-09-11T19:07:20.280Z,58.69148225441753
2022-09-11T19:11:20.996Z,59.564173508978186
2022-09-11T19:14:20.429Z,59.22095347117796
2022-09-11T19:17:18.282Z,59.218621223346304
2022-09-11T19:21:20.615Z,58.80503934614432
2022-09-11T19:24:19.840Z,58.40047819638412
2022-09-11T19:27:19.423Z,59.00434419395025
2022-09-11T19:31:23.670Z,60.080416928102736
2022-09-11T19:34:20.713Z,60.74499915347411
2022-09-11T19:37:19.888Z,61.075169653467945
2022-09-11T19:41:20.696Z,61.057730937874595
2022-09-11T19:44:18.958Z,61.44293703637996
2022-09-11T19:47:18.870Z,61.414671532532886
2022-09-11T19:51:20.421Z,61.72055677234687
2022-09-11T19:54:18.318Z,61.708630106852304
2022-09-11T19:57:19.514Z,62.227550577344466
2022-09-11T20:01:21.355Z,62.72830699353234
2022-09-11T20:04:20.672Z,63.292159827244674
2022-09-11T20:07:24.288Z,63.60834776959923
2022-09-11T20:11:25.815Z,63.669865607478464
2022-09-11T20:14:22.661Z,64.81056694161946
2022-09-11T20:17:21.458Z,64.52748261803323
2022-09-11T20:21:19.158Z,64.76564691035867
2022-09-11T20:24:19.478Z,64.99913779780042
2022-09-11T20:27:20.608Z,65.53457368106086
2022-09-11T20:31:22.892Z,65.2492309746002
2022-09-11T20:34:21.170Z,65.05027187824427
2022-09-11T20:37:20.466Z,65.72711863198214
2022-09-11T20:41:19.482Z,66.38959828135968
2022-09-11T20:44:18.357Z,66.60751215904882
2022-09-11T20:47:18.207Z,66.7813469922879
2022-09-11T20:51:20.121Z,66.58569309144366
2022-09-11T20:54:18.833Z,66.87555005424683
2022-09-11T20:57:17.747Z,67.23191807484766
2022-09-11T21:01:22.247Z,67.67475168965419
2022-09-11T21:04:18.684Z,68.06129717869474
2022-09-11T21:07:19.351Z,68.63817224949885
2022-09-11T21:11:18.567Z,69.15209944282651
2022-09-11T21:14:19.504Z,69.85897074538374
2022-09-11T21:17:19.121Z,69.94787673839409
2022-09-11T21:21:17.975Z,69.66238869670866
2022-09-11T21:24:17.720Z,69.80845447668165
2022-09-11T21:27:18.004Z,70.47678106140778
2022-09-11T21:31:17.664Z,69.43834335650858
2022-09-11T21:34:18.759Z,69.9823048008978
2022-09-11T21:37:23.484Z,69.7697381633842
2022-09-11T21:41:17.602Z,70.32720375765739
2022-09-11T21:44:18.249Z,70.4869404457397
2022-09-11T21:47:18.806Z,70.87825275002196
2022-09-11T21:51:18.747Z,71.08932937629608
2022-09-11T21:54:17.108Z,72.18442572288235
2022-09-11T21:57:17.123Z,72.00609532674723
2022-09-11T22:01:16.651Z,73.04852779780704
2022-09-11T22:04:16.548Z,73.36063846409371
2022-09-11T22:07:19.393Z,73.14498350246504
2022-09-11T22:11:17.504Z,72.09078296468242
2022-09-11T22:14:20.537Z,72.32822983653205
2022-09-11T22:17:16.373Z,72.67669749179349
2022-09-11T22:21:17.815Z,72.12065896554837
2022-09-11T22:24:18.566Z,72.77787762454942
2022-09-11T22:27:17.216Z,72.94461368725884
2022-09-11T22:31:19.714Z,73.12569967719023
2022-09-11T22:34:19.926Z,74.00060259997598
2022-09-11T22:37:17.414Z,74.07955966006266
2022-09-11T22:41:17.614Z,75.29315673803352
2022-09-11T22:44:16.795Z,75.01830287211786
2022-09-11T22:47:17.595Z,75.28158562878401
2022-09-11T22:51:19.163Z,75.779400628385
2022-09-11T22:54:17.078Z,76.27317152299655
2022-09-11T22:57:16.997Z,76.4638746843822
2022-09-11T23:01:21.136Z,76.73629911940704
2022-09-11T23:04:16.687Z,77.05438413409466
2022-09-11T23:07:17.027Z,76.92292399471106
2022-09-11T23:11:18.233Z,75.95261083475174
2022-09-11T23:14:17.380Z,76.34868622169694
2022-09-11T23:17:17.310Z,76.80910573633393
2022-09-11T23:21:16.136Z,77.13736802814893
2022-09-11T23:24:16.905Z,77.315230197466
2022-09-11T23:27:16.576Z,77.62642108186472
2022-09-11T23:31:20.162Z,77.8997709807724
2022-09-11T23:34:17.235Z,78.07908851316611
2022-09-11T23:37:18.130Z,78.59706885707404
2022-09-11T23:41:16.612Z,78.74321845259304
2022-09-11T23:44:16.887Z,79.0878951175496
2022-09-11T23:47:16.514Z,79.71932502269543
2022-09-11T23:51:17.098Z,78.65130020871592
2022-09-11T23:54:18.352Z,78.7266435982849
2022-09-11T23:57:18.627Z,78.91937011994524
